Mega Smeralda — ICIU — position and weather

sailwx.info

Track history (hours):
 
Tides and Currents Weather Stations Pressure Air Temp Water Temp Dewpoint Dewpoint Depression Visibility Wind Speed Wind Dir Waves Ship Positions

Mega Smeralda

Last reported at 2015-Mar-06 02:33 UTC. Time now 2015-Mar-06 04:02 UTC.
Position N 42°57' E 006°23'.

Length 171 m; draft 6.4 m.

Type: Passenger vessel. MMSI: 247228600.

Date/timePositionNaut miles runAvg speedWind from/ knotsBaromVisibWave heightAir tempDewpointWater temp
2015-Mar-06 02:33N 42°57' E 006°23'1211.6
2015-Mar-06 01:33N 42°60' E 006°38'1313.3
2015-Mar-06 00:33N 43°04' E 006°55'1313.3
2015-Mar-05 23:33N 43°06' E 007°13'14 0.6
2015-Mar-04 23:32N 42°52' E 007°11'1717.4
2015-Mar-04 22:32N 42°56' E 006°48'3617.1
2015-Mar-04 20:24N 43°04' E 005°59'4 4.7
2015-Mar-04 19:33N 43°07' E 005°56'0 0.0
2015-Mar-04 18:33N 43°07' E 005°56'0 0.0
2015-Mar-04 17:33N 43°07' E 005°56'0 0.0
2015-Mar-04 16:33N 43°07' E 005°56'0 0.0
2015-Mar-04 15:33N 43°07' E 005°56'0 0.0
2015-Mar-04 14:33N 43°07' E 005°56'0 0.0
2015-Mar-04 13:33N 43°07' E 005°56'0 0.0
2015-Mar-04 12:33N 43°07' E 005°56'0 0.0
2015-Mar-04 11:33N 43°07' E 005°56'0 0.0
2015-Mar-04 10:33N 43°07' E 005°56'0 0.0
2015-Mar-04 09:33N 43°07' E 005°56'0 0.0
2015-Mar-04 08:33N 43°07' E 005°56'0 0.0
2015-Mar-04 07:33N 43°07' E 005°56'0 0.0
2015-Mar-04 06:33N 43°07' E 005°56'4 3.5
2015-Mar-04 05:31N 43°04' E 005°59'1313.4
2015-Mar-04 04:32N 42°55' E 006°11'1414.5
2015-Mar-04 03:33N 42°47' E 006°28'1614.2
2015-Mar-04 02:28N 42°39' E 006°46'1314.0
2015-Mar-04 01:31N 42°32' E 007°01'4 0.1
2015-Mar-03 00:14N 42°30' E 007°05'4515.2
2015-Mar-02 21:15N 42°54' E 006°13'1416.6
2015-Mar-02 20:26N 43°04' E 005°59'4 4.5
2015-Mar-02 19:31N 43°07' E 005°56'0 0.0
2015-Mar-02 18:31N 43°07' E 005°56'0 0.0
2015-Mar-02 17:31N 43°07' E 005°56'0 0.0
2015-Mar-02 16:31N 43°07' E 005°56'0 0.0
2015-Mar-02 15:31N 43°07' E 005°56'0 0.0
2015-Mar-02 14:31N 43°07' E 005°56'0 0.0
2015-Mar-02 13:31N 43°07' E 005°56'0 0.0
2015-Mar-02 12:28N 43°07' E 005°56'0 0.0
2015-Mar-02 11:31N 43°07' E 005°56'0 0.0
2015-Mar-02 10:31N 43°07' E 005°56'0 0.0
2015-Mar-02 09:31N 43°07' E 005°56'0 0.0
2015-Mar-02 08:31N 43°07' E 005°56'0 0.0
2015-Mar-02 07:31N 43°07' E 005°56'0 0.0
2015-Mar-02 06:31N 43°07' E 005°56'3 3.0
2015-Mar-02 05:33N 43°05' E 005°58'1614.4
2015-Mar-02 04:24N 42°57' E 006°18'1518.0
2015-Mar-02 03:33N 42°56' E 006°39'1817.5
2015-Mar-02 02:33N 42°58' E 007°03'1817.4
2015-Mar-02 01:31N 42°59' E 007°27'8617.2
2015-Mar-01 20:29N 43°04' E 009°25'86 4.2
2015-Mar-01 00:16N 42°59' E 007°29'1216.8
2015-Feb-28 23:32N 42°58' E 007°12'1817.4
2015-Feb-28 22:30N 42°57' E 006°47'1617.0
2015-Feb-28 21:33N 42°56' E 006°25'2115.8
2015-Feb-28 20:14N 43°04' E 005°59'4 5.4
2015-Feb-28 19:33N 43°07' E 005°56'0 0.0
2015-Feb-28 18:33N 43°07' E 005°56'0 0.0
2015-Feb-28 17:33N 43°07' E 005°56'0 0.0
2015-Feb-28 16:33N 43°07' E 005°56'0 0.0
2015-Feb-28 15:33N 43°07' E 005°56'0 0.0
2015-Feb-28 14:33N 43°07' E 005°56'0 0.0
2015-Feb-28 13:30N 43°07' E 005°56'0 0.0
2015-Feb-28 12:33N 43°07' E 005°56'0 0.0
2015-Feb-28 11:33N 43°07' E 005°56'0 0.0
2015-Feb-28 10:33N 43°07' E 005°56'0 0.0
2015-Feb-28 09:33N 43°07' E 005°56'0 0.0
2015-Feb-28 08:33N 43°07' E 005°56'0 0.0
2015-Feb-28 07:33N 43°07' E 005°56'0 0.0
2015-Feb-28 06:33N 43°07' E 005°56'5 4.8
2015-Feb-28 05:32N 43°03' E 005°60'1615.5
2015-Feb-28 04:29N 42°56' E 006°20'1717.9
2015-Feb-28 03:34N 42°57' E 006°42'1817.6
2015-Feb-28 02:34N 42°58' E 007°06'9017.3
2015-Feb-27 21:22N 43°03' E 009°09'1417.0
2015-Feb-27 20:33N 43°02' E 009°28'82 9.7
2015-Feb-27 12:05N 43°32' E 007°44'1019.0
2015-Feb-27 11:34N 43°36' E 007°31'1110.9
2015-Feb-27 10:32N 43°42' E 007°17'1313.8
2015-Feb-27 09:33N 43°29' E 007°10'2019.6
2015-Feb-27 08:33N 43°15' E 006°52'1918.8
2015-Feb-27 07:33N 43°01' E 006°34'2617.5
2015-Feb-27 06:05N 43°04' E 005°59'4 6.7
2015-Feb-27 05:32N 43°07' E 005°56'2 2.0
2015-Feb-27 04:33N 43°05' E 005°57'1814.5
2015-Feb-27 03:18N 42°53' E 006°15'1215.6
2015-Feb-27 02:33N 42°47' E 006°28'1715.7
2015-Feb-27 01:29N 42°38' E 006°48'45 1.5
2015-Feb-25 20:24N 43°04' E 005°58'3 4.0
2015-Feb-25 19:32N 43°07' E 005°56'0 0.0
2015-Feb-25 18:32N 43°07' E 005°56'0 0.0
2015-Feb-25 17:32N 43°07' E 005°56'0 0.0
2015-Feb-25 16:32N 43°07' E 005°56'0 0.0
2015-Feb-25 15:32N 43°07' E 005°56'0 0.0
2015-Feb-25 14:32N 43°07' E 005°56'0 0.0
2015-Feb-25 13:32N 43°07' E 005°56'0 0.0
2015-Feb-25 12:32N 43°07' E 005°56'0 0.0
2015-Feb-25 11:32N 43°07' E 005°56'0 0.0
2015-Feb-25 10:32N 43°07' E 005°56'0 0.0
2015-Feb-25 09:32N 43°07' E 005°56'0 0.0
2015-Feb-25 08:32N 43°07' E 005°56'0 0.0
2015-Feb-25 07:32N 43°07' E 005°56'0 0.0
2015-Feb-25 06:32N 43°07' E 005°56'2512.5
2015-Feb-25 04:34N 42°53' E 006°23'1616.1
2015-Feb-25 03:34N 42°43' E 006°41'1716.2
2015-Feb-25 02:32N 42°33' E 006°58'  
Track history (hours):
 
Tides and Currents Weather Stations Pressure Air Temp Water Temp Dewpoint Dewpoint Depression Visibility Wind Speed Wind Dir Waves Ship Positions

Mega Smeralda

Last reported at 2015-Mar-06 02:33 UTC. Time now 2015-Mar-06 04:02 UTC.
Position N 42°57' E 006°23'.

Length 171 m; draft 6.4 m.

Type: Passenger vessel. MMSI: 247228600.

Date/timePositionNaut miles runAvg speedWind from/ knotsBaromVisibWave heightAir tempDewpointWater temp
2015-Mar-06 02:33N 42°57' E 006°23'1211.6
2015-Mar-06 01:33N 42°60' E 006°38'1313.3
2015-Mar-06 00:33N 43°04' E 006°55'1313.3
2015-Mar-05 23:33N 43°06' E 007°13'14 0.6
2015-Mar-04 23:32N 42°52' E 007°11'1717.4
2015-Mar-04 22:32N 42°56' E 006°48'3617.1
2015-Mar-04 20:24N 43°04' E 005°59'4 4.7
2015-Mar-04 19:33N 43°07' E 005°56'0 0.0
2015-Mar-04 18:33N 43°07' E 005°56'0 0.0
2015-Mar-04 17:33N 43°07' E 005°56'0 0.0
2015-Mar-04 16:33N 43°07' E 005°56'0 0.0
2015-Mar-04 15:33N 43°07' E 005°56'0 0.0
2015-Mar-04 14:33N 43°07' E 005°56'0 0.0
2015-Mar-04 13:33N 43°07' E 005°56'0 0.0
2015-Mar-04 12:33N 43°07' E 005°56'0 0.0
2015-Mar-04 11:33N 43°07' E 005°56'0 0.0
2015-Mar-04 10:33N 43°07' E 005°56'0 0.0
2015-Mar-04 09:33N 43°07' E 005°56'0 0.0
2015-Mar-04 08:33N 43°07' E 005°56'0 0.0
2015-Mar-04 07:33N 43°07' E 005°56'0 0.0
2015-Mar-04 06:33N 43°07' E 005°56'4 3.5
2015-Mar-04 05:31N 43°04' E 005°59'1313.4
2015-Mar-04 04:32N 42°55' E 006°11'1414.5
2015-Mar-04 03:33N 42°47' E 006°28'1614.2
2015-Mar-04 02:28N 42°39' E 006°46'1314.0
2015-Mar-04 01:31N 42°32' E 007°01'4 0.1
2015-Mar-03 00:14N 42°30' E 007°05'4515.2
2015-Mar-02 21:15N 42°54' E 006°13'1416.6
2015-Mar-02 20:26N 43°04' E 005°59'4 4.5
2015-Mar-02 19:31N 43°07' E 005°56'0 0.0
2015-Mar-02 18:31N 43°07' E 005°56'0 0.0
2015-Mar-02 17:31N 43°07' E 005°56'0 0.0
2015-Mar-02 16:31N 43°07' E 005°56'0 0.0
2015-Mar-02 15:31N 43°07' E 005°56'0 0.0
2015-Mar-02 14:31N 43°07' E 005°56'0 0.0
2015-Mar-02 13:31N 43°07' E 005°56'0 0.0
2015-Mar-02 12:28N 43°07' E 005°56'0 0.0
2015-Mar-02 11:31N 43°07' E 005°56'0 0.0
2015-Mar-02 10:31N 43°07' E 005°56'0 0.0
2015-Mar-02 09:31N 43°07' E 005°56'0 0.0
2015-Mar-02 08:31N 43°07' E 005°56'0 0.0
2015-Mar-02 07:31N 43°07' E 005°56'0 0.0
2015-Mar-02 06:31N 43°07' E 005°56'3 3.0
2015-Mar-02 05:33N 43°05' E 005°58'1614.4
2015-Mar-02 04:24N 42°57' E 006°18'1518.0
2015-Mar-02 03:33N 42°56' E 006°39'1817.5
2015-Mar-02 02:33N 42°58' E 007°03'1817.4
2015-Mar-02 01:31N 42°59' E 007°27'8617.2
2015-Mar-01 20:29N 43°04' E 009°25'86 4.2
2015-Mar-01 00:16N 42°59' E 007°29'1216.8
2015-Feb-28 23:32N 42°58' E 007°12'1817.4
2015-Feb-28 22:30N 42°57' E 006°47'1617.0
2015-Feb-28 21:33N 42°56' E 006°25'2115.8
2015-Feb-28 20:14N 43°04' E 005°59'4 5.4
2015-Feb-28 19:33N 43°07' E 005°56'0 0.0
2015-Feb-28 18:33N 43°07' E 005°56'0 0.0
2015-Feb-28 17:33N 43°07' E 005°56'0 0.0
2015-Feb-28 16:33N 43°07' E 005°56'0 0.0
2015-Feb-28 15:33N 43°07' E 005°56'0 0.0
2015-Feb-28 14:33N 43°07' E 005°56'0 0.0
2015-Feb-28 13:30N 43°07' E 005°56'0 0.0
2015-Feb-28 12:33N 43°07' E 005°56'0 0.0
2015-Feb-28 11:33N 43°07' E 005°56'0 0.0
2015-Feb-28 10:33N 43°07' E 005°56'0 0.0
2015-Feb-28 09:33N 43°07' E 005°56'0 0.0
2015-Feb-28 08:33N 43°07' E 005°56'0 0.0
2015-Feb-28 07:33N 43°07' E 005°56'0 0.0
2015-Feb-28 06:33N 43°07' E 005°56'5 4.8
2015-Feb-28 05:32N 43°03' E 005°60'1615.5
2015-Feb-28 04:29N 42°56' E 006°20'1717.9
2015-Feb-28 03:34N 42°57' E 006°42'1817.6
2015-Feb-28 02:34N 42°58' E 007°06'9017.3
2015-Feb-27 21:22N 43°03' E 009°09'1417.0
2015-Feb-27 20:33N 43°02' E 009°28'82 9.7
2015-Feb-27 12:05N 43°32' E 007°44'1019.0
2015-Feb-27 11:34N 43°36' E 007°31'1110.9
2015-Feb-27 10:32N 43°42' E 007°17'1313.8
2015-Feb-27 09:33N 43°29' E 007°10'2019.6
2015-Feb-27 08:33N 43°15' E 006°52'1918.8
2015-Feb-27 07:33N 43°01' E 006°34'2617.5
2015-Feb-27 06:05N 43°04' E 005°59'4 6.7
2015-Feb-27 05:32N 43°07' E 005°56'2 2.0
2015-Feb-27 04:33N 43°05' E 005°57'1814.5
2015-Feb-27 03:18N 42°53' E 006°15'1215.6
2015-Feb-27 02:33N 42°47' E 006°28'1715.7
2015-Feb-27 01:29N 42°38' E 006°48'45 1.5
2015-Feb-25 20:24N 43°04' E 005°58'3 4.0
2015-Feb-25 19:32N 43°07' E 005°56'0 0.0
2015-Feb-25 18:32N 43°07' E 005°56'0 0.0
2015-Feb-25 17:32N 43°07' E 005°56'0 0.0
2015-Feb-25 16:32N 43°07' E 005°56'0 0.0
2015-Feb-25 15:32N 43°07' E 005°56'0 0.0
2015-Feb-25 14:32N 43°07' E 005°56'0 0.0
2015-Feb-25 13:32N 43°07' E 005°56'0 0.0
2015-Feb-25 12:32N 43°07' E 005°56'0 0.0
2015-Feb-25 11:32N 43°07' E 005°56'0 0.0
2015-Feb-25 10:32N 43°07' E 005°56'0 0.0
2015-Feb-25 09:32N 43°07' E 005°56'0 0.0
2015-Feb-25 08:32N 43°07' E 005°56'0 0.0
2015-Feb-25 07:32N 43°07' E 005°56'0 0.0
2015-Feb-25 06:32N 43°07' E 005°56'2512.5
2015-Feb-25 04:34N 42°53' E 006°23'1616.1
2015-Feb-25 03:34N 42°43' E 006°41'1716.2
2015-Feb-25 02:32N 42°33' E 006°58'  

Dump ship's entire track history